createdAt,value
2022-12-27T06:17:28.686Z,1013.26
2022-12-27T06:27:28.526Z,1013.29
2022-12-27T06:37:28.535Z,1013.45
2022-12-27T06:47:28.534Z,1013.51
2022-12-27T06:57:28.569Z,1013.51
2022-12-27T07:07:28.584Z,1013.80
2022-12-27T07:17:28.570Z,1013.81
2022-12-27T07:27:28.647Z,1013.97
2022-12-27T07:37:28.664Z,1014.29
2022-12-27T07:47:28.759Z,1014.42
2022-12-27T07:57:28.674Z,1014.47
2022-12-27T08:07:28.587Z,1014.87
2022-12-27T08:17:28.733Z,1015.03
2022-12-27T08:27:28.568Z,1014.86
2022-12-27T08:37:28.692Z,1015.28
2022-12-27T08:47:28.868Z,1015.38
2022-12-27T08:57:28.988Z,1015.34
2022-12-27T09:07:29.033Z,1015.47
2022-12-27T09:17:28.966Z,1015.66
2022-12-27T09:27:29.059Z,1015.59
2022-12-27T09:37:29.145Z,1015.66
2022-12-27T09:47:29.020Z,1015.66
2022-12-27T09:57:28.974Z,1015.97
2022-12-27T10:07:29.016Z,1015.86
2022-12-27T10:17:28.978Z,1016.00
2022-12-27T10:27:28.984Z,1015.95
2022-12-27T10:37:29.041Z,1016.07
2022-12-27T10:47:29.001Z,1016.05
2022-12-27T10:57:29.036Z,1016.20
2022-12-27T11:07:29.000Z,1016.21
2022-12-27T11:17:28.931Z,1016.11
2022-12-27T11:27:28.935Z,1016.13
2022-12-27T11:37:28.948Z,1016.23
2022-12-27T11:47:28.930Z,1016.11
2022-12-27T11:57:29.941Z,1016.14
2022-12-27T12:07:28.976Z,1016.18
2022-12-27T12:17:35.596Z,1016.23
2022-12-27T12:27:28.971Z,1016.37
2022-12-27T12:37:29.067Z,1016.52
2022-12-27T12:47:28.999Z,1016.35
2022-12-27T12:57:29.006Z,1016.26
2022-12-27T13:07:30.331Z,1016.19
2022-12-27T13:17:29.037Z,1016.09
2022-12-27T13:27:28.988Z,1016.06
2022-12-27T13:37:29.078Z,1016.05
2022-12-27T13:47:29.055Z,1016.07
2022-12-27T13:57:29.224Z,1016.10
2022-12-27T14:07:29.037Z,1016.03
2022-12-27T14:17:29.193Z,1016.00
2022-12-27T14:27:29.230Z,1016.06
2022-12-27T14:37:29.073Z,1015.87
2022-12-27T14:47:29.173Z,1015.93
2022-12-27T14:57:33.448Z,1016.01
2022-12-27T15:07:29.049Z,1016.10
2022-12-27T15:17:29.128Z,1016.04
2022-12-27T15:27:29.053Z,1015.99
2022-12-27T15:37:29.122Z,1015.80
2022-12-27T15:47:29.102Z,1015.88
2022-12-27T15:57:29.174Z,1015.76
2022-12-27T16:07:29.197Z,1015.74
2022-12-27T16:17:29.217Z,1015.70
2022-12-27T16:27:29.129Z,1015.71
2022-12-27T16:37:29.152Z,1015.58
2022-12-27T16:47:29.168Z,1015.49
2022-12-27T16:57:29.082Z,1015.43
2022-12-27T17:07:29.100Z,1015.39
2022-12-27T17:17:29.314Z,1015.36
2022-12-27T17:27:29.103Z,1015.37
2022-12-27T17:37:29.329Z,1015.38
2022-12-27T17:47:29.125Z,1015.30
2022-12-27T17:57:29.139Z,1015.20
2022-12-27T18:07:29.184Z,1015.16
2022-12-27T18:17:29.532Z,1015.07
2022-12-27T18:27:29.359Z,1015.09
2022-12-27T18:37:29.472Z,1014.94
2022-12-27T18:47:29.456Z,1014.79
2022-12-27T18:57:29.803Z,1014.65
2022-12-27T19:07:29.768Z,1014.54
2022-12-27T19:17:29.758Z,1014.29
